sensor_id;sensor_type;location;lat;lon;timestamp;P1;durP1;ratioP1;P2;durP2;ratioP2
74241;SDS011;62599;49.146;10.426;2023-04-30T00:02:06;6.30;;;4.13;;
74241;SDS011;62599;49.146;10.426;2023-04-30T00:04:32;7.20;;;4.45;;
74241;SDS011;62599;49.146;10.426;2023-04-30T00:06:58;5.65;;;3.10;;
74241;SDS011;62599;49.146;10.426;2023-04-30T00:09:23;7.07;;;4.33;;
74241;SDS011;62599;49.146;10.426;2023-04-30T00:11:51;5.37;;;3.37;;
74241;SDS011;62599;49.146;10.426;2023-04-30T00:14:17;7.35;;;4.40;;
74241;SDS011;62599;49.146;10.426;2023-04-30T00:16:42;7.97;;;4.53;;
74241;SDS011;62599;49.146;10.426;2023-04-30T00:19:08;6.40;;;3.45;;
74241;SDS011;62599;49.146;10.426;2023-04-30T00:21:33;6.78;;;3.85;;
74241;SDS011;62599;49.146;10.426;2023-04-30T00:23:59;7.82;;;4.97;;
74241;SDS011;62599;49.146;10.426;2023-04-30T00:26:24;6.30;;;4.15;;
74241;SDS011;62599;49.146;10.426;2023-04-30T00:28:50;7.20;;;4.32;;
74241;SDS011;62599;49.146;10.426;2023-04-30T00:31:16;7.63;;;4.13;;
74241;SDS011;62599;49.146;10.426;2023-04-30T00:33:41;7.33;;;3.40;;
74241;SDS011;62599;49.146;10.426;2023-04-30T00:36:06;6.60;;;4.17;;
74241;SDS011;62599;49.146;10.426;2023-04-30T00:38:32;5.40;;;2.60;;
74241;SDS011;62599;49.146;10.426;2023-04-30T00:40:57;5.97;;;3.97;;
74241;SDS011;62599;49.146;10.426;2023-04-30T00:43:23;9.63;;;5.13;;
74241;SDS011;62599;49.146;10.426;2023-04-30T00:45:48;10.57;;;4.90;;
74241;SDS011;62599;49.146;10.426;2023-04-30T00:48:14;9.07;;;4.90;;
74241;SDS011;62599;49.146;10.426;2023-04-30T00:50:40;8.27;;;5.40;;
74241;SDS011;62599;49.146;10.426;2023-04-30T00:53:08;7.28;;;4.75;;
74241;SDS011;62599;49.146;10.426;2023-04-30T00:55:33;7.32;;;4.40;;
74241;SDS011;62599;49.146;10.426;2023-04-30T00:57:59;10.40;;;4.85;;
74241;SDS011;62599;49.146;10.426;2023-04-30T01:00:24;7.10;;;4.75;;
74241;SDS011;62599;49.146;10.426;2023-04-30T01:02:51;6.22;;;4.40;;
74241;SDS011;62599;49.146;10.426;2023-04-30T01:05:17;10.20;;;5.78;;
74241;SDS011;62599;49.146;10.426;2023-04-30T01:07:42;8.60;;;4.90;;
74241;SDS011;62599;49.146;10.426;2023-04-30T01:10:13;9.75;;;4.57;;
74241;SDS011;62599;49.146;10.426;2023-04-30T01:12:49;9.35;;;4.93;;
74241;SDS011;62599;49.146;10.426;2023-04-30T01:18:11;10.63;;;4.82;;
74241;SDS011;62599;49.146;10.426;2023-04-30T01:20:43;6.80;;;4.45;;
74241;SDS011;62599;49.146;10.426;2023-04-30T01:28:35;9.07;;;4.97;;
74241;SDS011;62599;49.146;10.426;2023-04-30T01:31:02;7.32;;;4.65;;
74241;SDS011;62599;49.146;10.426;2023-04-30T01:33:27;7.57;;;4.68;;
74241;SDS011;62599;49.146;10.426;2023-04-30T01:47:23;8.35;;;4.55;;
74241;SDS011;62599;49.146;10.426;2023-04-30T01:52:59;6.93;;;3.90;;
74241;SDS011;62599;49.146;10.426;2023-04-30T01:55:36;8.80;;;5.85;;
74241;SDS011;62599;49.146;10.426;2023-04-30T01:58:04;15.50;;;8.50;;
74241;SDS011;62599;49.146;10.426;2023-04-30T02:00:31;11.45;;;6.53;;
74241;SDS011;62599;49.146;10.426;2023-04-30T02:02:58;9.50;;;4.65;;
74241;SDS011;62599;49.146;10.426;2023-04-30T02:05:23;10.30;;;4.95;;
74241;SDS011;62599;49.146;10.426;2023-04-30T02:07:49;6.63;;;4.28;;
74241;SDS011;62599;49.146;10.426;2023-04-30T02:10:16;4.88;;;2.78;;
74241;SDS011;62599;49.146;10.426;2023-04-30T02:12:48;7.45;;;5.28;;
74241;SDS011;62599;49.146;10.426;2023-04-30T02:15:14;11.40;;;7.47;;
74241;SDS011;62599;49.146;10.426;2023-04-30T02:17:39;10.48;;;6.82;;
74241;SDS011;62599;49.146;10.426;2023-04-30T02:20:05;11.60;;;5.60;;
74241;SDS011;62599;49.146;10.426;2023-04-30T02:22:32;7.60;;;5.25;;
74241;SDS011;62599;49.146;10.426;2023-04-30T02:24:57;11.65;;;4.95;;
74241;SDS011;62599;49.146;10.426;2023-04-30T02:27:23;5.77;;;4.10;;
74241;SDS011;62599;49.146;10.426;2023-04-30T02:29:50;6.55;;;4.15;;
74241;SDS011;62599;49.146;10.426;2023-04-30T02:32:15;7.25;;;4.28;;
74241;SDS011;62599;49.146;10.426;2023-04-30T02:34:41;3.80;;;3.10;;
74241;SDS011;62599;49.146;10.426;2023-04-30T02:37:07;9.15;;;4.75;;
74241;SDS011;62599;49.146;10.426;2023-04-30T02:39:32;5.55;;;3.70;;
74241;SDS011;62599;49.146;10.426;2023-04-30T02:41:58;9.93;;;5.18;;
74241;SDS011;62599;49.146;10.426;2023-04-30T02:44:24;5.20;;;4.25;;
74241;SDS011;62599;49.146;10.426;2023-04-30T02:46:49;9.10;;;5.47;;
74241;SDS011;62599;49.146;10.426;2023-04-30T02:49:15;15.88;;;7.32;;
74241;SDS011;62599;49.146;10.426;2023-04-30T02:51:40;14.95;;;6.47;;
74241;SDS011;62599;49.146;10.426;2023-04-30T02:54:06;15.10;;;8.10;;
74241;SDS011;62599;49.146;10.426;2023-04-30T02:56:34;14.32;;;8.48;;
74241;SDS011;62599;49.146;10.426;2023-04-30T02:59:00;8.97;;;5.43;;
74241;SDS011;62599;49.146;10.426;2023-04-30T03:01:25;10.18;;;6.20;;
74241;SDS011;62599;49.146;10.426;2023-04-30T03:03:51;7.80;;;4.43;;
74241;SDS011;62599;49.146;10.426;2023-04-30T03:06:17;10.77;;;5.85;;
74241;SDS011;62599;49.146;10.426;2023-04-30T03:08:42;8.07;;;5.60;;
74241;SDS011;62599;49.146;10.426;2023-04-30T03:11:07;8.13;;;4.90;;
74241;SDS011;62599;49.146;10.426;2023-04-30T03:13:33;6.03;;;4.17;;
74241;SDS011;62599;49.146;10.426;2023-04-30T03:15:58;15.23;;;5.63;;
74241;SDS011;62599;49.146;10.426;2023-04-30T03:18:28;10.38;;;4.60;;
74241;SDS011;62599;49.146;10.426;2023-04-30T03:20:53;7.93;;;4.80;;
74241;SDS011;62599;49.146;10.426;2023-04-30T03:23:19;10.48;;;5.03;;
74241;SDS011;62599;49.146;10.426;2023-04-30T03:25:44;8.80;;;4.53;;
74241;SDS011;62599;49.146;10.426;2023-04-30T03:28:10;5.80;;;4.00;;
74241;SDS011;62599;49.146;10.426;2023-04-30T03:30:35;11.77;;;5.60;;
74241;SDS011;62599;49.146;10.426;2023-04-30T03:33:00;5.30;;;3.77;;
74241;SDS011;62599;49.146;10.426;2023-04-30T03:35:26;4.37;;;2.97;;
74241;SDS011;62599;49.146;10.426;2023-04-30T03:37:51;6.65;;;4.70;;
74241;SDS011;62599;49.146;10.426;2023-04-30T03:40:17;5.50;;;4.40;;
74241;SDS011;62599;49.146;10.426;2023-04-30T03:42:42;7.32;;;5.55;;
74241;SDS011;62599;49.146;10.426;2023-04-30T03:45:07;12.93;;;6.05;;
74241;SDS011;62599;49.146;10.426;2023-04-30T03:47:34;5.38;;;3.88;;
74241;SDS011;62599;49.146;10.426;2023-04-30T03:50:00;5.80;;;4.22;;
74241;SDS011;62599;49.146;10.426;2023-04-30T03:52:25;4.87;;;3.60;;
74241;SDS011;62599;49.146;10.426;2023-04-30T03:54:51;6.80;;;4.57;;
74241;SDS011;62599;49.146;10.426;2023-04-30T03:57:16;10.37;;;5.73;;
74241;SDS011;62599;49.146;10.426;2023-04-30T03:59:42;9.85;;;5.88;;
74241;SDS011;62599;49.146;10.426;2023-04-30T04:02:07;3.03;;;2.65;;
74241;SDS011;62599;49.146;10.426;2023-04-30T04:04:32;8.30;;;4.57;;
74241;SDS011;62599;49.146;10.426;2023-04-30T04:06:59;8.95;;;5.40;;
74241;SDS011;62599;49.146;10.426;2023-04-30T04:09:25;9.25;;;5.82;;
74241;SDS011;62599;49.146;10.426;2023-04-30T04:11:51;6.55;;;5.13;;
74241;SDS011;62599;49.146;10.426;2023-04-30T04:14:16;10.27;;;6.07;;
74241;SDS011;62599;49.146;10.426;2023-04-30T04:16:42;14.13;;;7.47;;
74241;SDS011;62599;49.146;10.426;2023-04-30T04:19:08;8.60;;;6.00;;
74241;SDS011;62599;49.146;10.426;2023-04-30T04:21:34;11.18;;;7.65;;
74241;SDS011;62599;49.146;10.426;2023-04-30T04:23:59;13.40;;;8.13;;
74241;SDS011;62599;49.146;10.426;2023-04-30T04:26:32;7.88;;;5.40;;
74241;SDS011;62599;49.146;10.426;2023-04-30T04:28:57;12.38;;;6.32;;
74241;SDS011;62599;49.146;10.426;2023-04-30T04:31:22;11.57;;;6.17;;
74241;SDS011;62599;49.146;10.426;2023-04-30T04:33:48;10.70;;;6.15;;
74241;SDS011;62599;49.146;10.426;2023-04-30T04:36:13;9.63;;;4.93;;
74241;SDS011;62599;49.146;10.426;2023-04-30T04:38:40;11.80;;;7.03;;
74241;SDS011;62599;49.146;10.426;2023-04-30T04:41:05;13.88;;;8.27;;
74241;SDS011;62599;49.146;10.426;2023-04-30T04:43:31;16.83;;;10.40;;
74241;SDS011;62599;49.146;10.426;2023-04-30T04:45:56;18.17;;;9.17;;
74241;SDS011;62599;49.146;10.426;2023-04-30T04:48:24;12.38;;;7.28;;
74241;SDS011;62599;49.146;10.426;2023-04-30T04:50:50;9.27;;;5.45;;
74241;SDS011;62599;49.146;10.426;2023-04-30T04:53:16;18.30;;;9.10;;
74241;SDS011;62599;49.146;10.426;2023-04-30T04:55:41;17.15;;;8.77;;
74241;SDS011;62599;49.146;10.426;2023-04-30T04:58:07;10.75;;;7.72;;
74241;SDS011;62599;49.146;10.426;2023-04-30T05:00:33;8.40;;;5.53;;
74241;SDS011;62599;49.146;10.426;2023-04-30T05:02:58;12.80;;;6.33;;
74241;SDS011;62599;49.146;10.426;2023-04-30T05:05:23;15.93;;;6.73;;
74241;SDS011;62599;49.146;10.426;2023-04-30T05:07:49;13.90;;;7.50;;
74241;SDS011;62599;49.146;10.426;2023-04-30T05:10:16;12.25;;;6.55;;
74241;SDS011;62599;49.146;10.426;2023-04-30T05:12:41;10.52;;;5.65;;
74241;SDS011;62599;49.146;10.426;2023-04-30T05:15:07;13.80;;;7.50;;
74241;SDS011;62599;49.146;10.426;2023-04-30T05:17:32;14.20;;;8.35;;
74241;SDS011;62599;49.146;10.426;2023-04-30T05:19:58;8.93;;;5.63;;
74241;SDS011;62599;49.146;10.426;2023-04-30T05:22:23;13.73;;;6.67;;
74241;SDS011;62599;49.146;10.426;2023-04-30T05:24:49;10.48;;;5.25;;
74241;SDS011;62599;49.146;10.426;2023-04-30T05:27:16;7.80;;;5.38;;
74241;SDS011;62599;49.146;10.426;2023-04-30T05:29:42;9.60;;;6.10;;
74241;SDS011;62599;49.146;10.426;2023-04-30T05:32:07;9.40;;;6.18;;
74241;SDS011;62599;49.146;10.426;2023-04-30T05:34:35;9.50;;;6.40;;
74241;SDS011;62599;49.146;10.426;2023-04-30T05:37:01;12.70;;;6.57;;
74241;SDS011;62599;49.146;10.426;2023-04-30T05:39:27;12.00;;;7.10;;
74241;SDS011;62599;49.146;10.426;2023-04-30T05:41:52;9.13;;;5.53;;
74241;SDS011;62599;49.146;10.426;2023-04-30T05:44:18;12.77;;;6.33;;
74241;SDS011;62599;49.146;10.426;2023-04-30T05:46:43;10.38;;;6.88;;
74241;SDS011;62599;49.146;10.426;2023-04-30T05:49:09;11.45;;;6.47;;
74241;SDS011;62599;49.146;10.426;2023-04-30T05:51:34;9.93;;;6.13;;
74241;SDS011;62599;49.146;10.426;2023-04-30T05:54:00;7.85;;;5.25;;
74241;SDS011;62599;49.146;10.426;2023-04-30T05:56:25;11.80;;;7.13;;
74241;SDS011;62599;49.146;10.426;2023-04-30T05:58:51;16.13;;;6.60;;
74241;SDS011;62599;49.146;10.426;2023-04-30T06:01:18;7.57;;;5.07;;
74241;SDS011;62599;49.146;10.426;2023-04-30T06:03:44;10.38;;;5.57;;
74241;SDS011;62599;49.146;10.426;2023-04-30T06:06:09;7.93;;;5.35;;
74241;SDS011;62599;49.146;10.426;2023-04-30T06:08:35;6.23;;;5.47;;
74241;SDS011;62599;49.146;10.426;2023-04-30T06:11:00;14.48;;;6.35;;
74241;SDS011;62599;49.146;10.426;2023-04-30T06:13:27;10.32;;;5.15;;
74241;SDS011;62599;49.146;10.426;2023-04-30T06:15:53;12.32;;;7.00;;
74241;SDS011;62599;49.146;10.426;2023-04-30T06:18:18;9.32;;;5.97;;
74241;SDS011;62599;49.146;10.426;2023-04-30T06:20:44;9.73;;;5.55;;
74241;SDS011;62599;49.146;10.426;2023-04-30T06:23:10;11.40;;;6.53;;
74241;SDS011;62599;49.146;10.426;2023-04-30T06:25:35;12.38;;;7.03;;
74241;SDS011;62599;49.146;10.426;2023-04-30T06:28:01;11.40;;;7.03;;
74241;SDS011;62599;49.146;10.426;2023-04-30T06:30:26;9.13;;;4.28;;
74241;SDS011;62599;49.146;10.426;2023-04-30T06:32:52;9.82;;;6.25;;
74241;SDS011;62599;49.146;10.426;2023-04-30T06:35:17;5.45;;;4.35;;
74241;SDS011;62599;49.146;10.426;2023-04-30T06:37:42;6.00;;;4.55;;
74241;SDS011;62599;49.146;10.426;2023-04-30T06:40:08;9.90;;;6.83;;
74241;SDS011;62599;49.146;10.426;2023-04-30T06:42:33;11.85;;;7.82;;
74241;SDS011;62599;49.146;10.426;2023-04-30T06:45:00;5.93;;;4.38;;
74241;SDS011;62599;49.146;10.426;2023-04-30T06:47:26;9.88;;;5.47;;
74241;SDS011;62599;49.146;10.426;2023-04-30T06:49:52;8.95;;;6.25;;
74241;SDS011;62599;49.146;10.426;2023-04-30T06:52:17;11.38;;;6.25;;
74241;SDS011;62599;49.146;10.426;2023-04-30T06:54:43;7.13;;;4.55;;
74241;SDS011;62599;49.146;10.426;2023-04-30T06:57:08;9.90;;;5.80;;
74241;SDS011;62599;49.146;10.426;2023-04-30T06:59:34;5.22;;;4.18;;
74241;SDS011;62599;49.146;10.426;2023-04-30T07:01:59;10.93;;;5.43;;
74241;SDS011;62599;49.146;10.426;2023-04-30T07:04:24;8.15;;;5.72;;
74241;SDS011;62599;49.146;10.426;2023-04-30T07:06:50;10.32;;;6.18;;
74241;SDS011;62599;49.146;10.426;2023-04-30T07:09:16;10.07;;;5.38;;
74241;SDS011;62599;49.146;10.426;2023-04-30T07:11:41;13.65;;;6.03;;
74241;SDS011;62599;49.146;10.426;2023-04-30T07:14:07;15.55;;;6.30;;
74241;SDS011;62599;49.146;10.426;2023-04-30T07:16:32;8.63;;;4.30;;
74241;SDS011;62599;49.146;10.426;2023-04-30T07:18:58;8.30;;;5.78;;
74241;SDS011;62599;49.146;10.426;2023-04-30T07:21:24;9.30;;;5.55;;
74241;SDS011;62599;49.146;10.426;2023-04-30T07:23:50;11.48;;;6.85;;
74241;SDS011;62599;49.146;10.426;2023-04-30T07:26:15;9.63;;;5.78;;
74241;SDS011;62599;49.146;10.426;2023-04-30T07:28:41;7.20;;;5.68;;
74241;SDS011;62599;49.146;10.426;2023-04-30T07:31:06;8.57;;;6.00;;
74241;SDS011;62599;49.146;10.426;2023-04-30T07:33:34;5.45;;;3.80;;
74241;SDS011;62599;49.146;10.426;2023-04-30T07:36:00;9.90;;;6.97;;
74241;SDS011;62599;49.146;10.426;2023-04-30T07:38:25;11.38;;;5.65;;
74241;SDS011;62599;49.146;10.426;2023-04-30T07:40:51;9.20;;;5.93;;
74241;SDS011;62599;49.146;10.426;2023-04-30T07:43:16;10.80;;;6.07;;
74241;SDS011;62599;49.146;10.426;2023-04-30T07:45:41;8.35;;;5.88;;
74241;SDS011;62599;49.146;10.426;2023-04-30T07:48:07;11.83;;;5.53;;
74241;SDS011;62599;49.146;10.426;2023-04-30T07:50:32;11.30;;;5.70;;
74241;SDS011;62599;49.146;10.426;2023-04-30T07:52:58;8.13;;;6.28;;
74241;SDS011;62599;49.146;10.426;2023-04-30T07:55:23;11.10;;;5.95;;
74241;SDS011;62599;49.146;10.426;2023-04-30T07:57:49;7.40;;;4.97;;
74241;SDS011;62599;49.146;10.426;2023-04-30T08:00:14;10.05;;;6.32;;
74241;SDS011;62599;49.146;10.426;2023-04-30T08:02:41;3.47;;;2.75;;
74241;SDS011;62599;49.146;10.426;2023-04-30T08:05:09;8.45;;;5.40;;
74241;SDS011;62599;49.146;10.426;2023-04-30T08:07:35;8.15;;;5.40;;
74241;SDS011;62599;49.146;10.426;2023-04-30T08:10:00;7.80;;;5.20;;
74241;SDS011;62599;49.146;10.426;2023-04-30T08:12:25;7.63;;;4.40;;
74241;SDS011;62599;49.146;10.426;2023-04-30T08:14:58;9.68;;;5.57;;
74241;SDS011;62599;49.146;10.426;2023-04-30T08:17:30;6.20;;;3.97;;
74241;SDS011;62599;49.146;10.426;2023-04-30T08:19:56;7.15;;;4.43;;
74241;SDS011;62599;49.146;10.426;2023-04-30T08:22:22;6.82;;;4.40;;
74241;SDS011;62599;49.146;10.426;2023-04-30T08:24:47;7.97;;;4.60;;
74241;SDS011;62599;49.146;10.426;2023-04-30T08:27:13;5.40;;;3.45;;
74241;SDS011;62599;49.146;10.426;2023-04-30T08:29:39;7.05;;;3.88;;
74241;SDS011;62599;49.146;10.426;2023-04-30T08:32:05;5.57;;;3.53;;
74241;SDS011;62599;49.146;10.426;2023-04-30T08:34:30;4.88;;;3.33;;
74241;SDS011;62599;49.146;10.426;2023-04-30T08:36:57;4.53;;;3.55;;
74241;SDS011;62599;49.146;10.426;2023-04-30T08:39:24;4.15;;;3.50;;
74241;SDS011;62599;49.146;10.426;2023-04-30T08:41:52;8.65;;;3.17;;
74241;SDS011;62599;49.146;10.426;2023-04-30T08:44:23;5.03;;;3.50;;
74241;SDS011;62599;49.146;10.426;2023-04-30T08:46:52;4.00;;;3.60;;
74241;SDS011;62599;49.146;10.426;2023-04-30T08:49:25;4.72;;;3.60;;
74241;SDS011;62599;49.146;10.426;2023-04-30T08:51:52;4.50;;;3.38;;
74241;SDS011;62599;49.146;10.426;2023-04-30T08:54:17;3.45;;;3.08;;
74241;SDS011;62599;49.146;10.426;2023-04-30T08:56:46;6.05;;;3.67;;
74241;SDS011;62599;49.146;10.426;2023-04-30T08:59:12;2.78;;;2.33;;
74241;SDS011;62599;49.146;10.426;2023-04-30T09:01:37;2.90;;;1.85;;
74241;SDS011;62599;49.146;10.426;2023-04-30T09:04:04;5.93;;;3.40;;
74241;SDS011;62599;49.146;10.426;2023-04-30T09:06:31;3.97;;;3.25;;
74241;SDS011;62599;49.146;10.426;2023-04-30T09:08:57;5.37;;;3.73;;
74241;SDS011;62599;49.146;10.426;2023-04-30T09:11:33;4.47;;;4.07;;
74241;SDS011;62599;49.146;10.426;2023-04-30T09:13:58;4.33;;;2.50;;
74241;SDS011;62599;49.146;10.426;2023-04-30T09:16:26;3.90;;;3.05;;
74241;SDS011;62599;49.146;10.426;2023-04-30T09:19:02;3.60;;;3.30;;
74241;SDS011;62599;49.146;10.426;2023-04-30T09:21:31;7.57;;;3.78;;
74241;SDS011;62599;49.146;10.426;2023-04-30T09:23:59;4.07;;;3.40;;
74241;SDS011;62599;49.146;10.426;2023-04-30T09:26:30;5.70;;;3.50;;
74241;SDS011;62599;49.146;10.426;2023-04-30T09:29:02;4.35;;;3.42;;
74241;SDS011;62599;49.146;10.426;2023-04-30T09:31:35;5.00;;;3.10;;
74241;SDS011;62599;49.146;10.426;2023-04-30T09:34:02;5.30;;;3.33;;
74241;SDS011;62599;49.146;10.426;2023-04-30T09:36:28;6.32;;;3.10;;
74241;SDS011;62599;49.146;10.426;2023-04-30T09:38:54;5.57;;;3.45;;
74241;SDS011;62599;49.146;10.426;2023-04-30T09:41:29;4.25;;;3.20;;
74241;SDS011;62599;49.146;10.426;2023-04-30T09:43:54;2.47;;;1.95;;
74241;SDS011;62599;49.146;10.426;2023-04-30T09:46:23;3.15;;;2.33;;
74241;SDS011;62599;49.146;10.426;2023-04-30T09:48:58;2.90;;;2.13;;
74241;SDS011;62599;49.146;10.426;2023-04-30T09:51:25;4.38;;;3.35;;
74241;SDS011;62599;49.146;10.426;2023-04-30T09:53:51;4.63;;;3.45;;
74241;SDS011;62599;49.146;10.426;2023-04-30T09:56:22;4.38;;;1.98;;
74241;SDS011;62599;49.146;10.426;2023-04-30T09:58:54;3.15;;;2.80;;
74241;SDS011;62599;49.146;10.426;2023-04-30T10:01:21;6.38;;;2.97;;
74241;SDS011;62599;49.146;10.426;2023-04-30T10:03:53;3.85;;;2.20;;
74241;SDS011;62599;49.146;10.426;2023-04-30T10:06:19;4.57;;;1.98;;
74241;SDS011;62599;49.146;10.426;2023-04-30T10:08:46;4.90;;;3.70;;
74241;SDS011;62599;49.146;10.426;2023-04-30T10:11:20;6.30;;;3.20;;
74241;SDS011;62599;49.146;10.426;2023-04-30T10:13:50;5.43;;;2.33;;
74241;SDS011;62599;49.146;10.426;2023-04-30T10:19:19;5.45;;;3.60;;
74241;SDS011;62599;49.146;10.426;2023-04-30T10:21:47;3.55;;;2.67;;
74241;SDS011;62599;49.146;10.426;2023-04-30T10:24:13;4.65;;;1.90;;
74241;SDS011;62599;49.146;10.426;2023-04-30T10:32:56;1.95;;;1.80;;
74241;SDS011;62599;49.146;10.426;2023-04-30T10:35:27;3.30;;;2.63;;
74241;SDS011;62599;49.146;10.426;2023-04-30T10:38:06;3.47;;;2.60;;
74241;SDS011;62599;49.146;10.426;2023-04-30T10:40:45;6.68;;;2.97;;
74241;SDS011;62599;49.146;10.426;2023-04-30T10:43:12;3.83;;;2.97;;
74241;SDS011;62599;49.146;10.426;2023-04-30T10:45:42;2.63;;;2.30;;
74241;SDS011;62599;49.146;10.426;2023-04-30T10:48:07;3.13;;;2.72;;
74241;SDS011;62599;49.146;10.426;2023-04-30T10:50:40;5.03;;;3.05;;
74241;SDS011;62599;49.146;10.426;2023-04-30T10:53:11;4.47;;;3.17;;
74241;SDS011;62599;49.146;10.426;2023-04-30T10:55:45;3.30;;;3.00;;
74241;SDS011;62599;49.146;10.426;2023-04-30T10:58:26;3.00;;;2.65;;
74241;SDS011;62599;49.146;10.426;2023-04-30T11:01:01;4.40;;;2.97;;
74241;SDS011;62599;49.146;10.426;2023-04-30T11:03:39;4.35;;;2.05;;
74241;SDS011;62599;49.146;10.426;2023-04-30T11:06:16;3.63;;;2.17;;
74241;SDS011;62599;49.146;10.426;2023-04-30T11:08:44;2.88;;;2.40;;
74241;SDS011;62599;49.146;10.426;2023-04-30T11:11:11;2.05;;;1.55;;
74241;SDS011;62599;49.146;10.426;2023-04-30T11:13:45;6.10;;;1.65;;
74241;SDS011;62599;49.146;10.426;2023-04-30T11:16:12;2.47;;;1.70;;
74241;SDS011;62599;49.146;10.426;2023-04-30T11:18:43;3.33;;;2.40;;
74241;SDS011;62599;49.146;10.426;2023-04-30T11:21:13;3.55;;;1.90;;
74241;SDS011;62599;49.146;10.426;2023-04-30T11:23:41;6.15;;;2.78;;
74241;SDS011;62599;49.146;10.426;2023-04-30T11:26:07;7.93;;;5.10;;
74241;SDS011;62599;49.146;10.426;2023-04-30T11:28:35;4.28;;;2.15;;
74241;SDS011;62599;49.146;10.426;2023-04-30T11:31:02;3.22;;;2.08;;
74241;SDS011;62599;49.146;10.426;2023-04-30T11:33:29;5.68;;;3.75;;
74241;SDS011;62599;49.146;10.426;2023-04-30T11:35:55;3.30;;;2.38;;
74241;SDS011;62599;49.146;10.426;2023-04-30T11:38:33;3.85;;;2.40;;
74241;SDS011;62599;49.146;10.426;2023-04-30T11:41:03;2.65;;;1.52;;
74241;SDS011;62599;49.146;10.426;2023-04-30T11:43:37;3.95;;;1.40;;
74241;SDS011;62599;49.146;10.426;2023-04-30T11:46:09;3.03;;;2.03;;
74241;SDS011;62599;49.146;10.426;2023-04-30T11:48:36;1.98;;;1.77;;
74241;SDS011;62599;49.146;10.426;2023-04-30T11:51:22;1.95;;;1.52;;
74241;SDS011;62599;49.146;10.426;2023-04-30T11:53:49;3.60;;;1.92;;
74241;SDS011;62599;49.146;10.426;2023-04-30T11:58:50;3.22;;;1.83;;
74241;SDS011;62599;49.146;10.426;2023-04-30T12:01:20;2.42;;;1.50;;
74241;SDS011;62599;49.146;10.426;2023-04-30T12:03:46;1.60;;;0.95;;
74241;SDS011;62599;49.146;10.426;2023-04-30T12:06:25;3.25;;;2.35;;
74241;SDS011;62599;49.146;10.426;2023-04-30T12:08:56;2.28;;;1.80;;
74241;SDS011;62599;49.146;10.426;2023-04-30T12:11:33;2.47;;;1.55;;
74241;SDS011;62599;49.146;10.426;2023-04-30T12:14:06;7.30;;;2.90;;
74241;SDS011;62599;49.146;10.426;2023-04-30T12:16:50;1.52;;;1.25;;
74241;SDS011;62599;49.146;10.426;2023-04-30T12:19:25;2.78;;;2.58;;
74241;SDS011;62599;49.146;10.426;2023-04-30T12:21:51;2.00;;;1.50;;
74241;SDS011;62599;49.146;10.426;2023-04-30T12:24:21;2.22;;;1.50;;
74241;SDS011;62599;49.146;10.426;2023-04-30T12:26:53;2.80;;;2.45;;
74241;SDS011;62599;49.146;10.426;2023-04-30T12:29:22;4.05;;;2.60;;
74241;SDS011;62599;49.146;10.426;2023-04-30T12:34:16;3.10;;;1.38;;
74241;SDS011;62599;49.146;10.426;2023-04-30T12:36:42;3.53;;;2.80;;
74241;SDS011;62599;49.146;10.426;2023-04-30T12:39:08;2.72;;;2.53;;
74241;SDS011;62599;49.146;10.426;2023-04-30T12:41:39;2.28;;;1.23;;
74241;SDS011;62599;49.146;10.426;2023-04-30T12:44:15;2.72;;;2.00;;
74241;SDS011;62599;49.146;10.426;2023-04-30T12:46:49;3.22;;;2.90;;
74241;SDS011;62599;49.146;10.426;2023-04-30T12:49:24;3.70;;;2.50;;
74241;SDS011;62599;49.146;10.426;2023-04-30T12:51:50;3.58;;;1.88;;
74241;SDS011;62599;49.146;10.426;2023-04-30T12:54:26;2.35;;;2.03;;
74241;SDS011;62599;49.146;10.426;2023-04-30T12:57:02;4.00;;;1.73;;
74241;SDS011;62599;49.146;10.426;2023-04-30T12:59:37;4.50;;;2.85;;
74241;SDS011;62599;49.146;10.426;2023-04-30T13:02:04;3.53;;;2.25;;
74241;SDS011;62599;49.146;10.426;2023-04-30T13:04:37;1.70;;;1.60;;
74241;SDS011;62599;49.146;10.426;2023-04-30T13:07:03;3.17;;;2.20;;
74241;SDS011;62599;49.146;10.426;2023-04-30T13:09:29;2.95;;;2.30;;
74241;SDS011;62599;49.146;10.426;2023-04-30T13:11:55;3.58;;;2.75;;
74241;SDS011;62599;49.146;10.426;2023-04-30T13:14:21;2.25;;;1.65;;
74241;SDS011;62599;49.146;10.426;2023-04-30T13:16:46;6.43;;;1.83;;
74241;SDS011;62599;49.146;10.426;2023-04-30T13:19:12;3.55;;;3.03;;
74241;SDS011;62599;49.146;10.426;2023-04-30T13:21:38;2.00;;;1.73;;
74241;SDS011;62599;49.146;10.426;2023-04-30T13:24:03;2.10;;;1.40;;
74241;SDS011;62599;49.146;10.426;2023-04-30T13:26:29;6.07;;;1.52;;
74241;SDS011;62599;49.146;10.426;2023-04-30T13:28:54;2.67;;;1.70;;
74241;SDS011;62599;49.146;10.426;2023-04-30T13:31:20;3.53;;;1.80;;
74241;SDS011;62599;49.146;10.426;2023-04-30T13:33:46;3.28;;;2.80;;
74241;SDS011;62599;49.146;10.426;2023-04-30T13:36:12;2.90;;;2.10;;
74241;SDS011;62599;49.146;10.426;2023-04-30T13:38:37;3.08;;;1.73;;
74241;SDS011;62599;49.146;10.426;2023-04-30T13:41:05;3.28;;;1.83;;
74241;SDS011;62599;49.146;10.426;2023-04-30T13:43:31;2.50;;;1.90;;
74241;SDS011;62599;49.146;10.426;2023-04-30T13:45:57;3.20;;;2.22;;
74241;SDS011;62599;49.146;10.426;2023-04-30T13:48:22;2.38;;;1.60;;
74241;SDS011;62599;49.146;10.426;2023-04-30T13:50:49;2.70;;;1.90;;
74241;SDS011;62599;49.146;10.426;2023-04-30T13:53:18;4.55;;;2.50;;
74241;SDS011;62599;49.146;10.426;2023-04-30T13:55:44;2.33;;;1.80;;
74241;SDS011;62599;49.146;10.426;2023-04-30T13:58:09;3.25;;;2.95;;
74241;SDS011;62599;49.146;10.426;2023-04-30T14:00:35;2.15;;;1.52;;
74241;SDS011;62599;49.146;10.426;2023-04-30T14:03:00;2.37;;;1.53;;
74241;SDS011;62599;49.146;10.426;2023-04-30T14:05:25;6.27;;;3.23;;
74241;SDS011;62599;49.146;10.426;2023-04-30T14:07:51;4.43;;;2.78;;
74241;SDS011;62599;49.146;10.426;2023-04-30T14:10:17;3.25;;;2.15;;
74241;SDS011;62599;49.146;10.426;2023-04-30T14:12:42;2.85;;;1.83;;
74241;SDS011;62599;49.146;10.426;2023-04-30T14:15:07;4.10;;;1.65;;
74241;SDS011;62599;49.146;10.426;2023-04-30T14:17:33;4.00;;;1.88;;
74241;SDS011;62599;49.146;10.426;2023-04-30T14:19:59;1.65;;;1.10;;
74241;SDS011;62599;49.146;10.426;2023-04-30T14:22:28;3.67;;;1.85;;
74241;SDS011;62599;49.146;10.426;2023-04-30T14:24:53;3.67;;;1.77;;
74241;SDS011;62599;49.146;10.426;2023-04-30T14:27:19;2.08;;;1.85;;
74241;SDS011;62599;49.146;10.426;2023-04-30T14:29:48;2.95;;;2.00;;
74241;SDS011;62599;49.146;10.426;2023-04-30T14:32:13;5.15;;;1.77;;
74241;SDS011;62599;49.146;10.426;2023-04-30T14:34:39;2.28;;;1.35;;
74241;SDS011;62599;49.146;10.426;2023-04-30T14:37:04;6.72;;;2.22;;
74241;SDS011;62599;49.146;10.426;2023-04-30T14:39:30;2.50;;;1.90;;
74241;SDS011;62599;49.146;10.426;2023-04-30T14:41:55;2.33;;;2.13;;
74241;SDS011;62599;49.146;10.426;2023-04-30T14:44:21;2.50;;;1.95;;
74241;SDS011;62599;49.146;10.426;2023-04-30T14:46:48;3.35;;;2.85;;
74241;SDS011;62599;49.146;10.426;2023-04-30T14:49:14;2.50;;;1.85;;
74241;SDS011;62599;49.146;10.426;2023-04-30T14:51:40;5.72;;;1.67;;
74241;SDS011;62599;49.146;10.426;2023-04-30T14:54:05;3.08;;;1.70;;
74241;SDS011;62599;49.146;10.426;2023-04-30T14:56:31;2.57;;;1.70;;
74241;SDS011;62599;49.146;10.426;2023-04-30T14:58:56;2.08;;;1.20;;
74241;SDS011;62599;49.146;10.426;2023-04-30T15:01:22;2.38;;;1.65;;
74241;SDS011;62599;49.146;10.426;2023-04-30T15:03:47;2.35;;;2.15;;
74241;SDS011;62599;49.146;10.426;2023-04-30T15:06:13;1.65;;;1.40;;
74241;SDS011;62599;49.146;10.426;2023-04-30T15:08:39;2.45;;;1.63;;